Archival Weather

Southern Wisconsin Rgnl

Janesville, Wisconsin (KJVL)

Report from: Wednesday, December 6, 2023 6:45 AM CST
Current time: Sunday, February 25, 2024 2:58 PM CST

Current weather – Weather history – Daily summaries
Weather forecast

Temperature1.0°C (33.8°F)
Wind chill-2.4°C (27.7°F)
Dew point-4.0°C (24.8°F)
Winds 6 kts (3.1 m/s, 6.9 mph) West (270°)
Visibility10 mi. (16.1 km)
Clouds Ceiling: Overcast 2,100 ft. (640 m)
Altimeter30.27 in.Hg (1025 mB)
Relative humidity69 %
Density altitude-2,037 ft. (-621 m)
Flight conditions Marginal Visual Meteorological Conditions
Raw dataKJVL 061245Z 27006KT 10SM OVC021 01/M04 A3027
An error has occurred. This application may no longer respond until reloaded. Reload 🗙